Nicut, West Virginia
Current Conditions -  °F | °C
As of 3:15 PM on Monday 26 Jan 2015 (Local Time) from KW22 Reporting Station
Light Snow Light Snow  
Wind Chill: 20°   Ceiling: 100
Heat Index: 28°   Visibility: 0.75mi
Dew Point: 28°   Wind: 9mph
Humidity: 100%   Direction: 260°W
Pressure: 29.67"   Gusts: NA
Location:  38.7375°N, 80.9417°W
Report Text: KW22 262015Z AUTO 26008KT 3/4SM -SN OVC001 M02/M02 A2967 RMK AO2
Loading
Personal Weather Stations






























Interactive Weather Map New forecast layout! Learn more

10-Day Weather Forecast

Advertisements
Track Severe Weather on mobile